Time;durP1;ratioP1;P1;durP2;ratioP2;P2;SDS_P1;SDS_P2;PMS_P1;PMS_P2;Temp;Humidity;BMP_temperature;BMP_pressure;BME280_temperature;BME280_humidity;BME280_pressure;Samples;Min_cycle;Max_cycle;Signal;HPM_P1;HPM_P2
2021/06/24 00:02:16;;;;;;;32.70;25.40;;;;;;;;;;764289;181;914997;-74
2021/06/24 00:04:42;;;;;;;34.20;25.07;;;;;;;;;;768312;181;915138;-71
2021/06/24 00:07:08;;;;;;;33.50;25.17;;;;;;;;;;772967;181;915217;-73
2021/06/24 00:09:33;;;;;;;37.63;23.80;;;;;;;;;;769063;179;919373;-76
2021/06/24 00:11:59;;;;;;;36.57;25.27;;;;;;;;;;769285;181;913542;-72
2021/06/24 00:14:25;;;;;;;38.15;26.33;;;;;;;;;;772987;180;920864;-74
2021/06/24 00:16:51;;;;;;;38.43;27.67;;;;;;;;;;767465;180;815707;-71
2021/06/24 00:19:17;;;;;;;32.90;26.67;;;;;;;;;;760154;180;918406;-74
2021/06/24 00:21:43;;;;;;;40.93;27.47;;;;;;;;;;775246;181;906933;-74
2021/06/24 00:24:08;;;;;;;37.77;25.90;;;;;;;;;;768541;180;817873;-75
2021/06/24 00:26:34;;;;;;;35.13;24.97;;;;;;;;;;768109;179;911543;-71
2021/06/24 00:29:00;;;;;;;33.67;25.70;;;;;;;;;;767659;180;919259;-75
2021/06/24 00:31:26;;;;;;;35.60;25.97;;;;;;;;;;772896;180;913954;-74
2021/06/24 00:33:52;;;;;;;39.50;26.60;;;;;;;;;;769386;178;916026;-74
2021/06/24 00:36:18;;;;;;;36.63;26.47;;;;;;;;;;768259;179;914806;-72
2021/06/24 00:38:43;;;;;;;37.03;26.10;;;;;;;;;;774097;181;813751;-70
2021/06/24 00:41:09;;;;;;;38.50;26.43;;;;;;;;;;765070;180;914417;-72
2021/06/24 00:43:35;;;;;;;33.90;25.90;;;;;;;;;;768549;181;919381;-74
2021/06/24 00:46:01;;;;;;;29.87;25.03;;;;;;;;;;776114;180;917290;-74
2021/06/24 00:48:27;;;;;;;37.90;26.67;;;;;;;;;;771182;180;918884;-71
2021/06/24 00:50:53;;;;;;;39.40;25.90;;;;;;;;;;768426;180;918090;-75
2021/06/24 00:53:19;;;;;;;35.30;26.47;;;;;;;;;;773447;178;817059;-76
2021/06/24 00:55:45;;;;;;;37.93;27.23;;;;;;;;;;772410;179;983911;-71
2021/06/24 00:58:14;;;;;;;39.07;27.67;;;;;;;;;;771771;179;919022;-74
2021/06/24 01:00:40;;;;;;;35.90;26.60;;;;;;;;;;760892;182;815901;-74
2021/06/24 01:03:06;;;;;;;34.47;26.47;;;;;;;;;;774926;180;817339;-72
2021/06/24 01:05:32;;;;;;;38.43;26.67;;;;;;;;;;768533;181;919279;-73
2021/06/24 01:07:58;;;;;;;37.87;27.47;;;;;;;;;;771401;181;815774;-73
2021/06/24 01:10:24;;;;;;;42.17;27.87;;;;;;;;;;775216;180;917074;-77
2021/06/24 01:12:49;;;;;;;43.60;29.77;;;;;;;;;;767854;180;918806;-71
2021/06/24 01:15:15;;;;;;;35.80;27.80;;;;;;;;;;768158;179;952045;-71
2021/06/24 01:17:41;;;;;;;44.13;30.80;;;;;;;;;;769874;181;1020848;-73
2021/06/24 01:20:07;;;;;;;38.23;28.13;;;;;;;;;;772433;180;919559;-74
2021/06/24 01:22:33;;;;;;;41.23;30.83;;;;;;;;;;762122;181;1020264;-73
2021/06/24 01:24:59;;;;;;;43.40;29.93;;;;;;;;;;764994;181;1123677;-76
2021/06/24 01:27:25;;;;;;;38.03;27.73;;;;;;;;;;773061;181;976392;-73
2021/06/24 01:29:51;;;;;;;40.47;29.30;;;;;;;;;;769932;181;919381;-72
2021/06/24 01:32:16;;;;;;;40.27;28.97;;;;;;;;;;767691;181;920275;-75
2021/06/24 01:34:42;;;;;;;37.80;28.47;;;;;;;;;;765308;181;891481;-74
2021/06/24 01:37:08;;;;;;;42.87;31.00;;;;;;;;;;771266;178;815645;-75
2021/06/24 01:39:34;;;;;;;40.50;30.73;;;;;;;;;;770160;181;918027;-74
2021/06/24 01:42:00;;;;;;;39.13;28.75;;;;;;;;;;774911;181;816061;-75
2021/06/24 01:44:29;;;;;;;50.37;32.17;;;;;;;;;;770920;181;918268;-76
2021/06/24 01:46:55;;;;;;;44.03;32.67;;;;;;;;;;770489;180;917769;-72
2021/06/24 01:49:21;;;;;;;44.50;31.93;;;;;;;;;;767711;180;919373;-75
2021/06/24 01:51:46;;;;;;;53.03;32.63;;;;;;;;;;774930;180;919738;-72
2021/06/24 01:54:12;;;;;;;43.30;30.40;;;;;;;;;;767434;180;927294;-75
2021/06/24 01:56:38;;;;;;;40.77;30.70;;;;;;;;;;767314;180;922597;-72
2021/06/24 01:59:04;;;;;;;42.97;31.85;;;;;;;;;;778254;180;918536;-74
2021/06/24 02:01:30;;;;;;;43.47;32.40;;;;;;;;;;768794;180;915270;-75
2021/06/24 02:03:56;;;;;;;44.57;31.30;;;;;;;;;;772225;181;913449;-73
2021/06/24 02:06:21;;;;;;;56.40;36.17;;;;;;;;;;771913;179;819747;-75
2021/06/24 02:08:47;;;;;;;45.93;32.43;;;;;;;;;;770700;180;920346;-74
2021/06/24 02:11:13;;;;;;;44.00;29.93;;;;;;;;;;769022;181;916201;-74
2021/06/24 02:13:39;;;;;;;44.37;33.87;;;;;;;;;;769394;181;916406;-74
2021/06/24 02:16:05;;;;;;;54.40;33.37;;;;;;;;;;774509;181;813708;-73
2021/06/24 02:18:31;;;;;;;49.27;35.33;;;;;;;;;;771476;181;915647;-72
2021/06/24 02:20:57;;;;;;;50.50;35.67;;;;;;;;;;769413;181;924557;-71
2021/06/24 02:23:22;;;;;;;47.60;34.80;;;;;;;;;;773315;181;796642;-72
2021/06/24 02:25:48;;;;;;;51.23;35.80;;;;;;;;;;770503;180;918751;-72
2021/06/24 02:28:14;;;;;;;47.17;34.35;;;;;;;;;;769132;180;1018516;-71
2021/06/24 02:30:40;;;;;;;44.40;33.50;;;;;;;;;;775655;180;918811;-72
2021/06/24 02:33:06;;;;;;;47.30;34.03;;;;;;;;;;768349;180;919669;-74
2021/06/24 02:35:32;;;;;;;56.23;35.60;;;;;;;;;;768840;181;918776;-73
2021/06/24 02:37:57;;;;;;;49.28;34.58;;;;;;;;;;767555;180;816363;-71
2021/06/24 02:40:23;;;;;;;57.70;35.60;;;;;;;;;;774962;181;919116;-74
2021/06/24 02:42:49;;;;;;;52.63;34.20;;;;;;;;;;771527;181;918834;-71
2021/06/24 02:45:15;;;;;;;50.63;34.27;;;;;;;;;;772099;180;918204;-73
2021/06/24 02:47:41;;;;;;;60.00;35.40;;;;;;;;;;775180;180;815912;-73
2021/06/24 02:50:07;;;;;;;52.90;35.70;;;;;;;;;;770717;180;920540;-74
2021/06/24 02:52:33;;;;;;;48.30;34.10;;;;;;;;;;768892;181;918186;-73
2021/06/24 02:54:59;;;;;;;48.30;35.87;;;;;;;;;;772265;180;816556;-71
2021/06/24 02:57:25;;;;;;;58.37;34.77;;;;;;;;;;768625;179;821681;-70
2021/06/24 02:59:50;;;;;;;61.58;38.92;;;;;;;;;;767544;181;884413;-71
2021/06/24 03:02:16;;;;;;;49.23;34.90;;;;;;;;;;767948;180;917640;-73
2021/06/24 03:04:42;;;;;;;55.00;35.90;;;;;;;;;;770325;180;915355;-71
2021/06/24 03:07:08;;;;;;;49.87;33.80;;;;;;;;;;768877;180;816513;-72
2021/06/24 03:09:34;;;;;;;51.47;36.13;;;;;;;;;;772225;180;815837;-74
2021/06/24 03:12:00;;;;;;;54.63;38.90;;;;;;;;;;776641;181;815076;-72
2021/06/24 03:14:26;;;;;;;58.93;37.87;;;;;;;;;;770370;178;816490;-73
2021/06/24 03:16:51;;;;;;;51.15;37.38;;;;;;;;;;771715;181;815579;-73
2021/06/24 03:19:17;;;;;;;53.80;36.37;;;;;;;;;;775126;180;917571;-71
2021/06/24 03:21:43;;;;;;;59.07;37.70;;;;;;;;;;772847;178;815200;-72
2021/06/24 03:24:09;;;;;;;64.17;40.77;;;;;;;;;;768667;181;974642;-71
2021/06/24 03:26:35;;;;;;;66.73;40.67;;;;;;;;;;776234;181;816485;-72
2021/06/24 03:29:01;;;;;;;68.17;40.57;;;;;;;;;;766006;181;918626;-72
2021/06/24 03:31:26;;;;;;;59.00;39.00;;;;;;;;;;769595;179;1019811;-69
2021/06/24 03:33:52;;;;;;;64.30;40.27;;;;;;;;;;770751;180;920459;-71
2021/06/24 03:36:18;;;;;;;55.03;39.60;;;;;;;;;;773879;180;919003;-70
2021/06/24 03:38:46;;;;;;;66.93;38.90;;;;;;;;;;768960;180;917733;-71
2021/06/24 03:41:12;;;;;;;72.23;41.50;;;;;;;;;;769617;181;917756;-70
2021/06/24 03:43:36;;;;;;;74.22;39.78;;;;;;;;;;773051;180;921533;-71
2021/06/24 03:46:02;;;;;;;58.93;40.23;;;;;;;;;;767487;181;858034;-71
2021/06/24 03:48:27;;;;;;;71.00;44.27;;;;;;;;;;767676;180;919413;-72
2021/06/24 03:50:53;;;;;;;61.57;39.50;;;;;;;;;;775198;181;815452;-71
2021/06/24 03:53:19;;;;;;;70.40;40.45;;;;;;;;;;766240;180;887870;-71
2021/06/24 03:55:45;;;;;;;60.13;39.87;;;;;;;;;;757042;184;917230;-72
2021/06/24 03:58:11;;;;;;;66.57;41.17;;;;;;;;;;761995;180;918691;-72
2021/06/24 04:00:37;;;;;;;70.47;40.80;;;;;;;;;;771648;181;918986;-73
2021/06/24 04:03:03;;;;;;;68.10;40.40;;;;;;;;;;768672;179;1021496;-72
2021/06/24 04:05:31;;;;;;;68.90;42.08;;;;;;;;;;768082;181;919236;-73
2021/06/24 04:07:54;;;;;;;61.63;40.33;;;;;;;;;;774131;180;917132;-73
2021/06/24 04:10:20;;;;;;;60.87;41.43;;;;;;;;;;770698;181;918971;-71
2021/06/24 04:12:46;;;;;;;58.93;40.03;;;;;;;;;;768501;181;919099;-71
2021/06/24 04:15:12;;;;;;;64.17;41.83;;;;;;;;;;772985;180;916527;-71
2021/06/24 04:17:38;;;;;;;54.57;36.97;;;;;;;;;;758199;181;886969;-72
2021/06/24 04:20:05;;;;;;;61.00;38.70;;;;;;;;;;761990;180;921921;-72
2021/06/24 04:22:31;;;;;;;62.93;41.00;;;;;;;;;;774386;179;918615;-72
2021/06/24 04:24:57;;;;;;;62.87;38.50;;;;;;;;;;770032;182;920018;-72
2021/06/24 04:27:23;;;;;;;66.37;40.10;;;;;;;;;;769444;181;897662;-71
2021/06/24 04:29:49;;;;;;;66.67;42.60;;;;;;;;;;768379;180;818854;-71
2021/06/24 04:32:15;;;;;;;59.47;38.57;;;;;;;;;;772502;180;918696;-75
2021/06/24 04:34:41;;;;;;;63.83;39.10;;;;;;;;;;769811;178;918967;-72
2021/06/24 04:37:06;;;;;;;67.27;40.77;;;;;;;;;;767190;181;918356;-71
2021/06/24 04:39:32;;;;;;;62.30;39.53;;;;;;;;;;775089;180;917842;-71
2021/06/24 04:41:58;;;;;;;64.73;40.00;;;;;;;;;;768621;180;919190;-72
2021/06/24 04:44:24;;;;;;;64.57;41.30;;;;;;;;;;771584;181;920269;-72
2021/06/24 04:46:50;;;;;;;59.40;40.30;;;;;;;;;;775946;179;816289;-72
2021/06/24 04:49:17;;;;;;;68.67;41.97;;;;;;;;;;771030;180;917351;-72
2021/06/24 04:51:41;;;;;;;68.03;42.07;;;;;;;;;;773218;179;915580;-70
2021/06/24 04:54:08;;;;;;;78.20;46.10;;;;;;;;;;769737;180;904373;-72
2021/06/24 04:56:33;;;;;;;65.00;41.17;;;;;;;;;;773168;181;916174;-71
2021/06/24 04:58:59;;;;;;;65.80;43.30;;;;;;;;;;770086;180;931964;-73
2021/06/24 05:01:25;;;;;;;65.67;42.70;;;;;;;;;;764758;181;1014832;-74
2021/06/24 05:03:51;;;;;;;64.30;43.10;;;;;;;;;;773500;180;902308;-72
2021/06/24 05:06:17;;;;;;;62.40;41.47;;;;;;;;;;763149;181;916423;-74
2021/06/24 05:08:42;;;;;;;72.97;43.63;;;;;;;;;;773178;181;916284;-72
2021/06/24 05:11:08;;;;;;;62.27;41.60;;;;;;;;;;776084;180;889241;-73
2021/06/24 05:13:34;;;;;;;60.70;42.77;;;;;;;;;;767466;180;813100;-71
2021/06/24 05:16:00;;;;;;;64.97;41.70;;;;;;;;;;768719;181;915802;-76
2021/06/24 05:18:26;;;;;;;60.07;41.13;;;;;;;;;;772049;180;919716;-71
2021/06/24 05:20:52;;;;;;;65.80;42.30;;;;;;;;;;768540;180;909255;-72
2021/06/24 05:23:18;;;;;;;61.03;42.60;;;;;;;;;;767058;181;918149;-72
2021/06/24 05:25:44;;;;;;;66.60;42.60;;;;;;;;;;767353;181;918650;-74
2021/06/24 05:28:09;;;;;;;60.10;41.57;;;;;;;;;;777209;180;918589;-73
2021/06/24 05:30:35;;;;;;;67.93;40.00;;;;;;;;;;770477;181;919386;-73
2021/06/24 05:33:01;;;;;;;65.20;41.57;;;;;;;;;;766743;180;918380;-71
2021/06/24 05:35:27;;;;;;;53.20;38.27;;;;;;;;;;777140;180;918661;-70
2021/06/24 05:37:53;;;;;;;49.03;35.80;;;;;;;;;;768742;180;919285;-73
2021/06/24 05:40:19;;;;;;;49.93;36.57;;;;;;;;;;769936;180;920091;-74
2021/06/24 05:42:45;;;;;;;51.07;34.93;;;;;;;;;;773363;181;918462;-75
2021/06/24 05:45:11;;;;;;;55.37;38.87;;;;;;;;;;770278;180;918439;-75
2021/06/24 05:47:37;;;;;;;52.30;35.97;;;;;;;;;;759143;183;918936;-72
2021/06/24 05:50:03;;;;;;;50.63;32.97;;;;;;;;;;756952;184;1021212;-72
2021/06/24 05:52:29;;;;;;;46.57;30.50;;;;;;;;;;768145;183;815188;-73
2021/06/24 05:54:55;;;;;;;47.60;31.57;;;;;;;;;;764451;180;919463;-76
2021/06/24 05:57:20;;;;;;;46.10;31.30;;;;;;;;;;767322;180;987987;-74
2021/06/24 05:59:46;;;;;;;51.43;34.03;;;;;;;;;;775622;180;835510;-74
2021/06/24 06:02:12;;;;;;;46.13;29.93;;;;;;;;;;770252;181;913305;-71
2021/06/24 06:04:38;;;;;;;44.00;28.30;;;;;;;;;;770793;181;919539;-75
2021/06/24 06:07:04;;;;;;;39.90;27.70;;;;;;;;;;774357;180;915213;-78
2021/06/24 06:09:30;;;;;;;40.17;28.50;;;;;;;;;;768156;181;915868;-69
2021/06/24 06:11:55;;;;;;;44.23;27.73;;;;;;;;;;766827;181;921303;-74
2021/06/24 06:14:21;;;;;;;39.07;25.93;;;;;;;;;;759066;182;922277;-72
2021/06/24 06:16:47;;;;;;;39.10;25.23;;;;;;;;;;769727;179;914334;-74
2021/06/24 06:19:13;;;;;;;36.17;26.70;;;;;;;;;;768825;180;910264;-71
2021/06/24 06:21:39;;;;;;;35.53;24.43;;;;;;;;;;765985;181;903964;-75
2021/06/24 06:24:05;;;;;;;40.07;23.93;;;;;;;;;;772173;180;914092;-71
2021/06/24 06:26:31;;;;;;;42.00;25.23;;;;;;;;;;770415;180;813256;-74
2021/06/24 06:29:02;;;;;;;33.03;23.53;;;;;;;;;;768106;181;884987;-70
2021/06/24 06:31:24;;;;;;;33.63;23.13;;;;;;;;;;774811;180;619552;-75
2021/06/24 06:33:48;;;;;;;34.50;22.40;;;;;;;;;;773291;181;622417;-72
2021/06/24 06:36:14;;;;;;;43.90;25.63;;;;;;;;;;767097;182;854581;-73
2021/06/24 06:38:41;;;;;;;37.10;25.37;;;;;;;;;;773153;180;1020532;-73
2021/06/24 06:41:08;;;;;;;36.00;24.40;;;;;;;;;;778828;179;632539;-72
2021/06/24 06:43:33;;;;;;;36.17;25.17;;;;;;;;;;771303;180;626023;-73
2021/06/24 06:45:59;;;;;;;42.37;25.80;;;;;;;;;;769095;180;630887;-76
2021/06/24 06:48:25;;;;;;;38.23;23.83;;;;;;;;;;775469;181;812619;-73
2021/06/24 06:50:51;;;;;;;51.23;28.07;;;;;;;;;;770086;181;918055;-73
2021/06/24 06:53:16;;;;;;;46.33;28.10;;;;;;;;;;768279;181;918744;-72
2021/06/24 06:55:42;;;;;;;60.47;48.67;;;;;;;;;;774748;180;919491;-73
2021/06/24 06:58:08;;;;;;;54.17;31.10;;;;;;;;;;772055;181;917169;-72
2021/06/24 07:00:34;;;;;;;50.00;29.80;;;;;;;;;;774238;179;919211;-70
2021/06/24 07:03:00;;;;;;;40.40;27.43;;;;;;;;;;777330;179;919040;-72
2021/06/24 07:05:26;;;;;;;43.10;29.97;;;;;;;;;;769696;179;919326;-74
2021/06/24 07:07:51;;;;;;;47.20;28.63;;;;;;;;;;769119;181;915400;-73
2021/06/24 07:10:17;;;;;;;46.07;28.60;;;;;;;;;;768900;180;920101;-70
2021/06/24 07:12:43;;;;;;;43.63;27.07;;;;;;;;;;772896;180;919353;-71
2021/06/24 07:15:09;;;;;;;62.23;31.73;;;;;;;;;;770136;180;919309;-74
2021/06/24 07:17:35;;;;;;;46.70;29.20;;;;;;;;;;765777;181;916742;-72
2021/06/24 07:20:01;;;;;;;59.33;29.27;;;;;;;;;;773401;180;915292;-75
2021/06/24 07:22:27;;;;;;;53.77;32.27;;;;;;;;;;770221;179;812834;-72
2021/06/24 07:24:52;;;;;;;62.23;32.53;;;;;;;;;;770323;181;871577;-70
2021/06/24 07:27:18;;;;;;;56.13;33.87;;;;;;;;;;774633;181;916165;-71
2021/06/24 07:29:44;;;;;;;62.20;35.90;;;;;;;;;;769263;180;914668;-76
2021/06/24 07:32:10;;;;;;;56.43;32.27;;;;;;;;;;771894;180;913416;-73
2021/06/24 07:34:36;;;;;;;54.60;32.93;;;;;;;;;;774469;179;918777;-74
2021/06/24 07:37:02;;;;;;;51.23;31.30;;;;;;;;;;772850;180;919189;-74
2021/06/24 07:39:30;;;;;;;52.13;33.23;;;;;;;;;;765492;180;919411;-72
2021/06/24 07:41:55;;;;;;;51.67;33.80;;;;;;;;;;768976;179;919431;-73
2021/06/24 07:44:21;;;;;;;56.90;34.10;;;;;;;;;;773815;180;924056;-75
2021/06/24 07:46:46;;;;;;;55.67;33.13;;;;;;;;;;766865;180;918921;-74
2021/06/24 07:49:12;;;;;;;49.03;31.73;;;;;;;;;;766460;181;919320;-75
2021/06/24 07:51:38;;;;;;;59.35;33.47;;;;;;;;;;775550;181;919169;-74
2021/06/24 07:54:04;;;;;;;68.63;45.40;;;;;;;;;;769778;181;918419;-74
2021/06/24 07:56:30;;;;;;;53.57;33.53;;;;;;;;;;776184;180;918061;-74
2021/06/24 07:58:56;;;;;;;58.57;35.80;;;;;;;;;;777760;180;815222;-70
2021/06/24 08:01:22;;;;;;;59.70;35.53;;;;;;;;;;769971;180;918085;-74
2021/06/24 08:03:48;;;;;;;61.80;34.10;;;;;;;;;;766418;181;918629;-72
2021/06/24 08:06:13;;;;;;;52.73;33.00;;;;;;;;;;765172;180;918614;-78
2021/06/24 08:08:39;;;;;;;56.03;33.43;;;;;;;;;;778057;180;880201;-72
2021/06/24 08:11:05;;;;;;;62.13;36.83;;;;;;;;;;771219;181;918715;-73
2021/06/24 08:13:31;;;;;;;56.40;35.85;;;;;;;;;;766391;181;914419;-74
2021/06/24 08:15:57;;;;;;;52.83;32.80;;;;;;;;;;772311;181;915974;-71
2021/06/24 08:18:23;;;;;;;48.92;30.85;;;;;;;;;;768516;180;919594;-77
2021/06/24 08:20:48;;;;;;;52.27;32.43;;;;;;;;;;767761;180;919275;-73
2021/06/24 08:23:15;;;;;;;49.87;33.67;;;;;;;;;;773942;181;867557;-75
2021/06/24 08:25:40;;;;;;;55.63;32.37;;;;;;;;;;772562;181;918930;-72
2021/06/24 08:28:06;;;;;;;51.47;32.87;;;;;;;;;;769474;181;918545;-77
2021/06/24 08:30:35;;;;;;;52.17;32.77;;;;;;;;;;769254;180;920040;-77
2021/06/24 08:32:58;;;;;;;50.67;32.17;;;;;;;;;;767581;180;918847;-76
2021/06/24 08:35:24;;;;;;;55.13;32.83;;;;;;;;;;761790;181;918888;-75
2021/06/24 08:37:50;;;;;;;49.58;31.80;;;;;;;;;;756405;181;918693;-73
2021/06/24 08:40:16;;;;;;;44.90;31.70;;;;;;;;;;777326;179;915668;-77
2021/06/24 08:42:42;;;;;;;44.47;31.10;;;;;;;;;;771989;180;919157;-74
2021/06/24 08:45:08;;;;;;;50.13;33.37;;;;;;;;;;767281;181;919423;-76
2021/06/24 08:47:35;;;;;;;53.50;31.33;;;;;;;;;;774319;181;919526;-73
2021/06/24 08:50:00;;;;;;;47.93;31.87;;;;;;;;;;767610;180;918792;-72
2021/06/24 08:52:25;;;;;;;47.67;32.33;;;;;;;;;;764581;181;915255;-75
2021/06/24 08:54:51;;;;;;;52.40;32.23;;;;;;;;;;774207;181;917345;-75
2021/06/24 08:57:18;;;;;;;50.60;35.70;;;;;;;;;;767679;180;919625;-75
2021/06/24 08:59:43;;;;;;;50.73;31.90;;;;;;;;;;766692;180;919451;-74
2021/06/24 09:02:12;;;;;;;47.93;30.93;;;;;;;;;;769108;180;646658;-77
2021/06/24 09:04:39;;;;;;;38.83;31.57;;;;;;;;;;773480;181;919476;-77
2021/06/24 09:07:04;;;;;;;41.83;30.90;;;;;;;;;;768627;179;919526;-76
2021/06/24 09:09:33;;;;;;;43.90;31.00;;;;;;;;;;771244;180;1021322;-75
2021/06/24 09:12:00;;;;;;;41.30;29.60;;;;;;;;;;777753;180;816276;-75
2021/06/24 09:14:25;;;;;;;45.67;29.97;;;;;;;;;;771821;180;917757;-76
2021/06/24 09:16:51;;;;;;;43.27;29.60;;;;;;;;;;773979;179;873519;-73
2021/06/24 09:19:19;;;;;;;54.47;31.50;;;;;;;;;;773343;181;914049;-73
2021/06/24 09:21:45;;;;;;;42.30;29.77;;;;;;;;;;772451;180;922564;-77
2021/06/24 09:24:16;;;;;;;45.17;30.17;;;;;;;;;;766604;180;915559;-76
2021/06/24 09:26:42;;;;;;;42.73;30.97;;;;;;;;;;770662;181;918718;-74
2021/06/24 09:29:08;;;;;;;43.77;30.87;;;;;;;;;;775286;179;1021561;-74
2021/06/24 09:31:36;;;;;;;48.67;31.70;;;;;;;;;;767707;180;919224;-75
2021/06/24 09:34:05;;;;;;;43.43;28.90;;;;;;;;;;771542;180;918636;-76
2021/06/24 09:36:30;;;;;;;35.77;29.10;;;;;;;;;;767070;181;921913;-74
2021/06/24 09:38:55;;;;;;;39.00;29.37;;;;;;;;;;773493;180;919308;-73
2021/06/24 09:41:21;;;;;;;39.30;29.50;;;;;;;;;;768116;181;919394;-75
2021/06/24 09:43:47;;;;;;;41.80;30.03;;;;;;;;;;767255;180;1020078;-75
2021/06/24 09:46:15;;;;;;;39.03;27.63;;;;;;;;;;768229;180;2036188;-73
2021/06/24 09:48:41;;;;;;;38.10;27.83;;;;;;;;;;766188;179;919390;-76
2021/06/24 09:51:08;;;;;;;39.47;29.67;;;;;;;;;;767561;181;918346;-75
2021/06/24 09:53:34;;;;;;;39.27;27.87;;;;;;;;;;769335;179;918119;-75
2021/06/24 09:56:00;;;;;;;38.37;27.07;;;;;;;;;;776156;181;632599;-73
2021/06/24 09:58:26;;;;;;;38.20;27.80;;;;;;;;;;768648;180;916285;-75
2021/06/24 10:00:52;;;;;;;37.60;26.80;;;;;;;;;;771436;178;919350;-74
2021/06/24 10:03:18;;;;;;;32.73;27.10;;;;;;;;;;774969;181;919641;-76
2021/06/24 10:05:44;;;;;;;33.67;26.27;;;;;;;;;;769736;180;1011039;-74
2021/06/24 10:08:10;;;;;;;35.60;27.53;;;;;;;;;;768218;181;918697;-74
2021/06/24 10:10:36;;;;;;;32.43;26.87;;;;;;;;;;772000;180;919532;-73
2021/06/24 10:13:02;;;;;;;33.83;25.13;;;;;;;;;;769608;180;919415;-73
2021/06/24 10:15:28;;;;;;;38.23;24.50;;;;;;;;;;766481;179;1049473;-73
2021/06/24 10:17:55;;;;;;;33.03;28.00;;;;;;;;;;765487;180;919827;-74
2021/06/24 10:20:20;;;;;;;37.17;25.50;;;;;;;;;;775770;180;921391;-73
2021/06/24 10:22:46;;;;;;;34.03;28.43;;;;;;;;;;766228;181;920731;-72
2021/06/24 10:25:12;;;;;;;35.55;25.20;;;;;;;;;;770720;178;1020700;-73
2021/06/24 10:27:38;;;;;;;33.37;27.10;;;;;;;;;;774726;180;913327;-71
2021/06/24 10:30:07;;;;;;;33.23;24.93;;;;;;;;;;773459;179;915077;-71
2021/06/24 10:32:33;;;;;;;34.93;25.60;;;;;;;;;;770480;180;915839;-73
2021/06/24 10:35:00;;;;;;;31.93;24.70;;;;;;;;;;768640;179;914435;-72
2021/06/24 10:37:26;;;;;;;32.73;25.23;;;;;;;;;;768143;181;915665;-73
2021/06/24 10:39:52;;;;;;;30.63;25.27;;;;;;;;;;768283;181;918358;-74
2021/06/24 10:42:17;;;;;;;34.77;26.43;;;;;;;;;;770338;179;914310;-74
2021/06/24 10:44:43;;;;;;;28.40;24.30;;;;;;;;;;779014;181;919117;-73
2021/06/24 10:47:09;;;;;;;37.87;24.87;;;;;;;;;;770932;180;919293;-73
2021/06/24 10:49:35;;;;;;;31.23;23.23;;;;;;;;;;769940;180;918753;-71
2021/06/24 10:52:07;;;;;;;28.40;25.00;;;;;;;;;;775342;181;918089;-71
2021/06/24 10:54:38;;;;;;;31.20;24.00;;;;;;;;;;774079;180;918728;-72
2021/06/24 10:57:04;;;;;;;29.93;25.13;;;;;;;;;;770471;178;919102;-73
2021/06/24 10:59:30;;;;;;;34.70;27.10;;;;;;;;;;767016;180;918317;-70
2021/06/24 11:02:02;;;;;;;29.73;24.17;;;;;;;;;;774177;180;918336;-71
2021/06/24 11:04:29;;;;;;;29.53;22.80;;;;;;;;;;772489;181;918439;-73
2021/06/24 11:06:54;;;;;;;30.57;24.60;;;;;;;;;;769573;181;918832;-72
2021/06/24 11:09:20;;;;;;;29.30;23.10;;;;;;;;;;761435;181;919371;-71
2021/06/24 11:11:46;;;;;;;32.63;25.00;;;;;;;;;;776008;180;918760;-71
2021/06/24 11:14:14;;;;;;;29.23;23.60;;;;;;;;;;767379;181;915542;-73
2021/06/24 11:16:38;;;;;;;26.33;23.40;;;;;;;;;;769317;181;936638;-71
2021/06/24 11:19:04;;;;;;;36.43;23.80;;;;;;;;;;775366;181;919232;-72
2021/06/24 11:21:44;;;;;;;37.87;26.37;;;;;;;;;;765786;181;919389;-72
2021/06/24 11:24:13;;;;;;;30.50;24.30;;;;;;;;;;768366;181;922449;-72
2021/06/24 11:26:39;;;;;;;31.13;24.77;;;;;;;;;;765824;180;918866;-72
2021/06/24 11:29:26;;;;;;;34.40;23.20;;;;;;;;;;765148;181;1286769;-74
2021/06/24 11:31:52;;;;;;;29.83;23.00;;;;;;;;;;767025;181;918507;-71
2021/06/24 11:34:24;;;;;;;30.90;21.98;;;;;;;;;;770863;181;918496;-72
2021/06/24 11:36:47;;;;;;;26.43;22.83;;;;;;;;;;770929;181;918921;-69
2021/06/24 11:39:13;;;;;;;29.40;22.27;;;;;;;;;;768333;179;919300;-70
2021/06/24 11:41:39;;;;;;;27.63;22.10;;;;;;;;;;779737;180;917611;-69
2021/06/24 11:44:05;;;;;;;29.60;22.70;;;;;;;;;;773403;180;918555;-71
2021/06/24 11:46:32;;;;;;;31.20;22.00;;;;;;;;;;771900;181;919277;-72
2021/06/24 12:01:54;;;;;;;25.13;21.77;;;;;;;;;;769825;180;918230;-70
2021/06/24 12:04:11;;;;;;;25.43;22.13;;;;;;;;;;772360;181;919200;-70
2021/06/24 12:06:40;;;;;;;26.10;22.70;;;;;;;;;;763308;181;919183;-71
2021/06/24 12:09:06;;;;;;;29.37;20.13;;;;;;;;;;764385;178;918956;-71
2021/06/24 12:11:32;;;;;;;28.83;21.37;;;;;;;;;;769196;180;919266;-72
2021/06/24 12:13:58;;;;;;;32.13;21.60;;;;;;;;;;774579;181;816114;-70
2021/06/24 12:16:24;;;;;;;29.03;22.37;;;;;;;;;;769977;180;918502;-72
2021/06/24 12:18:50;;;;;;;27.57;20.50;;;;;;;;;;769841;180;919421;-72
2021/06/24 12:21:16;;;;;;;31.10;21.93;;;;;;;;;;773933;180;919248;-71
2021/06/24 12:23:45;;;;;;;23.17;18.93;;;;;;;;;;767917;180;919191;-72
2021/06/24 12:26:10;;;;;;;24.13;20.80;;;;;;;;;;768491;181;1017780;-70
2021/06/24 12:28:36;;;;;;;28.37;21.90;;;;;;;;;;765662;181;918212;-72
2021/06/24 12:31:02;;;;;;;28.30;22.00;;;;;;;;;;771551;180;807228;-73
2021/06/24 12:33:29;;;;;;;31.73;21.43;;;;;;;;;;764549;180;920379;-72
2021/06/24 12:35:54;;;;;;;29.07;21.73;;;;;;;;;;767089;181;918575;-72
2021/06/24 12:38:20;;;;;;;29.77;22.27;;;;;;;;;;771961;180;922845;-72
2021/06/24 12:40:47;;;;;;;26.33;20.93;;;;;;;;;;768321;180;914525;-71
2021/06/24 12:43:16;;;;;;;26.00;19.52;;;;;;;;;;768874;179;939506;-71
2021/06/24 12:45:42;;;;;;;24.20;21.20;;;;;;;;;;777108;181;919066;-71
2021/06/24 12:48:14;;;;;;;29.77;20.93;;;;;;;;;;769823;181;940780;-71
2021/06/24 12:50:40;;;;;;;28.90;21.17;;;;;;;;;;772032;180;916549;-70
2021/06/24 12:53:07;;;;;;;25.60;20.67;;;;;;;;;;769201;178;918746;-72
2021/06/24 12:55:32;;;;;;;24.87;20.57;;;;;;;;;;774280;180;816515;-73
2021/06/24 12:57:59;;;;;;;31.93;21.23;;;;;;;;;;769312;180;919561;-72
2021/06/24 13:00:25;;;;;;;33.70;21.27;;;;;;;;;;769207;180;918841;-72
2021/06/24 13:02:51;;;;;;;25.87;20.83;;;;;;;;;;772908;181;919424;-71
2021/06/24 13:05:22;;;;;;;33.47;19.90;;;;;;;;;;768420;179;917695;-72
2021/06/24 13:07:54;;;;;;;29.77;23.53;;;;;;;;;;767017;180;920276;-71
2021/06/24 13:10:20;;;;;;;27.23;21.50;;;;;;;;;;767935;180;918492;-72
2021/06/24 13:12:47;;;;;;;24.57;19.57;;;;;;;;;;772626;181;918400;-73
2021/06/24 13:15:13;;;;;;;26.63;21.20;;;;;;;;;;774860;179;919316;-72
2021/06/24 13:17:39;;;;;;;24.97;18.97;;;;;;;;;;767360;181;920122;-71
2021/06/24 13:20:05;;;;;;;24.27;20.70;;;;;;;;;;767580;180;918569;-71
2021/06/24 13:22:34;;;;;;;26.50;20.00;;;;;;;;;;774191;181;917887;-73
2021/06/24 13:24:58;;;;;;;25.93;18.50;;;;;;;;;;759771;182;918184;-71
2021/06/24 13:27:23;;;;;;;24.90;20.90;;;;;;;;;;767480;180;920850;-70
2021/06/24 13:29:52;;;;;;;26.10;21.27;;;;;;;;;;773682;180;921093;-72
2021/06/24 13:32:18;;;;;;;23.10;20.13;;;;;;;;;;768071;180;919067;-71
2021/06/24 13:34:44;;;;;;;28.73;18.10;;;;;;;;;;766356;181;919335;-71
2021/06/24 13:37:11;;;;;;;24.60;19.50;;;;;;;;;;767207;179;921383;-73
2021/06/24 13:39:36;;;;;;;30.63;20.43;;;;;;;;;;775213;181;920496;-71
2021/06/24 13:42:02;;;;;;;29.70;20.00;;;;;;;;;;768173;180;918163;-72
2021/06/24 13:44:28;;;;;;;23.90;19.47;;;;;;;;;;768410;181;917933;-71
2021/06/24 13:46:54;;;;;;;31.37;18.87;;;;;;;;;;772866;180;918616;-72
2021/06/24 13:49:20;;;;;;;28.13;18.83;;;;;;;;;;763128;181;918337;-72
2021/06/24 13:51:46;;;;;;;28.60;18.90;;;;;;;;;;771099;178;917397;-72
2021/06/24 13:54:12;;;;;;;25.27;19.83;;;;;;;;;;777679;180;920465;-70
2021/06/24 13:56:37;;;;;;;22.97;17.30;;;;;;;;;;768810;178;1020014;-72
2021/06/24 13:59:03;;;;;;;27.23;19.03;;;;;;;;;;770227;180;920018;-71
2021/06/24 14:01:29;;;;;;;25.30;18.80;;;;;;;;;;771631;180;914534;-72
2021/06/24 14:03:55;;;;;;;23.53;17.93;;;;;;;;;;775701;180;917410;-72
2021/06/24 14:06:21;;;;;;;26.13;18.80;;;;;;;;;;770478;180;918529;-72
2021/06/24 14:08:47;;;;;;;24.70;18.00;;;;;;;;;;768694;180;914259;-73
2021/06/24 14:11:15;;;;;;;20.97;18.20;;;;;;;;;;770816;181;910194;-72